Ronks, PA

12:26 AM EDT on May 06, 2015 (GMT -0400)
Harrisburg International | | Change Station
CLOSE
Current Station
Airport
Location: Middletown,
Elevation: 312 ft
Nearby Weather Stations

Elev 312 ft 40.19 °N, 76.76 °W | Updated 30 minutes ago

Rain
Rain
68 °F
Feels Like 68 °F
N
4
Wind Variable Wind from ESE

Today
High -- | Low -- °F
--% Chance of Precip.
Yesterday
High -- | Low -- °F
Precip. -- in
5:58 AM 8:04 PM
Waning Gibbous, 96% visible
Pressure 30.22 in
Visibility 10.0 miles
Clouds Scattered Clouds 5000 ft
Mostly Cloudy 14000 ft
Dew Point 61 °F
Humidity 78%
Rainfall 0.02 in
Snow Depth Not available.
UV 0 out of 12
Pollen 9.90 out of 12
Air Quality Not available.
Flu Activity Sporadic
METAR KMDT 060356Z 11003KT 10SM SCT050 BKN140 20/16 A3022 RMK AO2 SLP231 T02000161

More Conditions Fewer Conditions

Pressure 30.22 in
Visibility 10.0 miles
Clouds Scattered Clouds 5000 ft
Mostly Cloudy 14000 ft
Dew Point 61 °F
Humidity 78%
Rainfall 0.02 in
Snow Depth Not available.
UV 0 out of 12
Pollen 9.90 out of 12
Air Quality Not available.
Flu Activity Sporadic
METAR KMDT 060356Z 11003KT 10SM SCT050 BKN140 20/16 A3022 RMK AO2 SLP231 T02000161

More Conditions Fewer Conditions

Nowcast | as of 12:15 am EDT on May 6, 2015

A cluster of showers and isolated thunderstorms will move out of the eastern portion of the lower Susquehanna valley by 2 am. At 1210 am...most of the activity was east of a Mount Joy...York line. A brief heavy downpour will be possible. The activity is moving southeast at 20 mph.

×

10-Day Weather Forecast

Almanac

Astronomy

May. 06, 2015 Rise Set
Actual Time
Civil Twilight
Nautical Twilight
Astronomical Twilight
Moon
Length of Visible Light
Length of Day
Tomorrow will be .
, % of the Moon is Illuminated

Today's Extremes

State Highs State Lows

Community

WunderPhotos

Upload Photos

1,818,975 photos uploaded!

WunderBlogs® & News

Nearby

Air Quality

  Air Quality AQ Index Pollutant
Not available.

Snow Depth

Station Depth Elevation

Earthquake Activity

City Distance Mag. Time & Date
Minimum magnitude displayed is 2.5.

Coastal Water Temperatures

Place Temperature

Stations

Nearby Weather Stations

Station Location Temp. Windchill Dew Point Humidity Wind Precip. Elev Updated Type